sensor_id;sensor_type;location;lat;lon;timestamp;P1;durP1;ratioP1;P2;durP2;ratioP2
21539;SDS011;10931;52.164;5.518;2022-08-19T01:26:51;2.92;;;0.90;;
21539;SDS011;10931;52.164;5.518;2022-08-19T01:29:17;1.30;;;0.80;;
21539;SDS011;10931;52.164;5.518;2022-08-19T01:31:42;1.80;;;1.08;;
21539;SDS011;10931;52.164;5.518;2022-08-19T01:34:08;2.83;;;0.88;;
21539;SDS011;10931;52.164;5.518;2022-08-19T01:36:36;1.08;;;0.98;;
21539;SDS011;10931;52.164;5.518;2022-08-19T01:39:05;1.20;;;1.00;;
21539;SDS011;10931;52.164;5.518;2022-08-19T01:41:54;1.05;;;0.90;;
21539;SDS011;10931;52.164;5.518;2022-08-19T01:44:20;1.05;;;0.80;;
21539;SDS011;10931;52.164;5.518;2022-08-19T01:46:48;0.82;;;0.70;;
21539;SDS011;10931;52.164;5.518;2022-08-19T01:49:18;0.88;;;0.80;;
21539;SDS011;10931;52.164;5.518;2022-08-19T01:51:46;1.13;;;0.70;;
21539;SDS011;10931;52.164;5.518;2022-08-19T01:54:13;0.80;;;0.80;;
21539;SDS011;10931;52.164;5.518;2022-08-19T01:56:45;0.60;;;0.60;;
21539;SDS011;10931;52.164;5.518;2022-08-19T01:59:16;0.95;;;0.85;;
21539;SDS011;10931;52.164;5.518;2022-08-19T02:01:44;1.33;;;0.90;;
21539;SDS011;10931;52.164;5.518;2022-08-19T02:16:53;3.10;;;1.05;;
21539;SDS011;10931;52.164;5.518;2022-08-19T02:19:19;1.23;;;0.90;;
21539;SDS011;10931;52.164;5.518;2022-08-19T02:21:45;2.75;;;0.90;;
21539;SDS011;10931;52.164;5.518;2022-08-19T02:24:11;1.65;;;0.98;;
21539;SDS011;10931;52.164;5.518;2022-08-19T02:29:59;1.15;;;0.80;;
21539;SDS011;10931;52.164;5.518;2022-08-19T02:32:28;1.00;;;0.90;;
21539;SDS011;10931;52.164;5.518;2022-08-19T02:34:55;1.20;;;0.90;;
21539;SDS011;10931;52.164;5.518;2022-08-19T02:37:21;1.25;;;1.05;;
21539;SDS011;10931;52.164;5.518;2022-08-19T02:40:05;1.00;;;0.90;;
21539;SDS011;10931;52.164;5.518;2022-08-19T03:43:52;3.03;;;1.10;;
21539;SDS011;10931;52.164;5.518;2022-08-19T03:47:10;0.90;;;0.88;;
21539;SDS011;10931;52.164;5.518;2022-08-19T04:16:46;1.67;;;1.20;;
21539;SDS011;10931;52.164;5.518;2022-08-19T04:19:25;1.50;;;1.10;;
21539;SDS011;10931;52.164;5.518;2022-08-19T04:24:39;1.08;;;1.00;;
21539;SDS011;10931;52.164;5.518;2022-08-19T04:27:18;3.38;;;0.98;;
21539;SDS011;10931;52.164;5.518;2022-08-19T06:50:59;1.83;;;1.00;;
21539;SDS011;10931;52.164;5.518;2022-08-19T06:53:55;2.67;;;1.50;;
21539;SDS011;10931;52.164;5.518;2022-08-19T06:56:58;1.73;;;1.17;;
21539;SDS011;10931;52.164;5.518;2022-08-19T06:59:30;3.38;;;1.30;;
21539;SDS011;10931;52.164;5.518;2022-08-19T07:32:09;3.60;;;1.83;;
21539;SDS011;10931;52.164;5.518;2022-08-19T07:40:47;2.83;;;1.75;;
21539;SDS011;10931;52.164;5.518;2022-08-19T08:31:28;7.57;;;4.78;;
21539;SDS011;10931;52.164;5.518;2022-08-19T08:46:55;7.13;;;4.90;;
21539;SDS011;10931;52.164;5.518;2022-08-19T08:49:42;5.13;;;4.18;;
21539;SDS011;10931;52.164;5.518;2022-08-19T08:59:02;7.65;;;4.60;;
21539;SDS011;10931;52.164;5.518;2022-08-19T09:01:58;7.68;;;5.20;;
21539;SDS011;10931;52.164;5.518;2022-08-19T09:04:24;6.88;;;4.93;;
21539;SDS011;10931;52.164;5.518;2022-08-19T09:09:30;6.75;;;4.85;;
21539;SDS011;10931;52.164;5.518;2022-08-19T09:14:50;7.75;;;5.20;;
21539;SDS011;10931;52.164;5.518;2022-08-19T09:17:23;6.47;;;5.07;;
21539;SDS011;10931;52.164;5.518;2022-08-19T09:22:34;8.00;;;5.30;;
21539;SDS011;10931;52.164;5.518;2022-08-19T09:25:01;6.35;;;5.68;;
21539;SDS011;10931;52.164;5.518;2022-08-19T09:27:30;8.15;;;5.15;;
21539;SDS011;10931;52.164;5.518;2022-08-19T09:30:01;5.88;;;4.45;;
21539;SDS011;10931;52.164;5.518;2022-08-19T09:32:26;6.93;;;5.00;;
21539;SDS011;10931;52.164;5.518;2022-08-19T09:34:52;7.00;;;5.00;;
21539;SDS011;10931;52.164;5.518;2022-08-19T09:37:23;7.38;;;5.13;;
21539;SDS011;10931;52.164;5.518;2022-08-19T09:39:52;6.40;;;4.70;;
21539;SDS011;10931;52.164;5.518;2022-08-19T09:42:18;6.63;;;5.13;;
21539;SDS011;10931;52.164;5.518;2022-08-19T09:44:47;6.63;;;5.13;;
21539;SDS011;10931;52.164;5.518;2022-08-19T09:47:13;7.30;;;4.80;;
21539;SDS011;10931;52.164;5.518;2022-08-19T09:49:41;6.20;;;5.03;;
21539;SDS011;10931;52.164;5.518;2022-08-19T09:52:10;5.55;;;4.55;;
21539;SDS011;10931;52.164;5.518;2022-08-19T09:54:37;8.35;;;5.22;;
21539;SDS011;10931;52.164;5.518;2022-08-19T09:57:03;7.90;;;5.25;;
21539;SDS011;10931;52.164;5.518;2022-08-19T09:59:29;10.50;;;5.07;;
21539;SDS011;10931;52.164;5.518;2022-08-19T10:01:55;6.25;;;4.82;;
21539;SDS011;10931;52.164;5.518;2022-08-19T10:04:21;5.50;;;4.57;;
21539;SDS011;10931;52.164;5.518;2022-08-19T10:06:47;6.72;;;4.57;;
21539;SDS011;10931;52.164;5.518;2022-08-19T10:09:15;8.00;;;4.95;;
21539;SDS011;10931;52.164;5.518;2022-08-19T10:11:42;6.00;;;4.88;;
21539;SDS011;10931;52.164;5.518;2022-08-19T10:14:13;7.28;;;5.00;;
21539;SDS011;10931;52.164;5.518;2022-08-19T10:16:39;6.28;;;4.90;;
21539;SDS011;10931;52.164;5.518;2022-08-19T10:19:06;7.03;;;4.70;;
21539;SDS011;10931;52.164;5.518;2022-08-19T10:21:37;6.65;;;4.70;;
21539;SDS011;10931;52.164;5.518;2022-08-19T10:24:04;5.95;;;4.45;;
21539;SDS011;10931;52.164;5.518;2022-08-19T10:26:33;9.23;;;5.22;;
21539;SDS011;10931;52.164;5.518;2022-08-19T10:29:01;5.32;;;4.25;;
21539;SDS011;10931;52.164;5.518;2022-08-19T10:31:30;4.95;;;4.20;;
21539;SDS011;10931;52.164;5.518;2022-08-19T10:34:00;5.78;;;4.60;;
21539;SDS011;10931;52.164;5.518;2022-08-19T10:36:27;7.38;;;4.78;;
21539;SDS011;10931;52.164;5.518;2022-08-19T10:38:55;6.22;;;4.55;;
21539;SDS011;10931;52.164;5.518;2022-08-19T10:41:24;5.78;;;4.60;;
21539;SDS011;10931;52.164;5.518;2022-08-19T10:43:56;7.43;;;4.40;;
21539;SDS011;10931;52.164;5.518;2022-08-19T10:46:24;4.93;;;4.00;;
21539;SDS011;10931;52.164;5.518;2022-08-19T10:48:52;8.57;;;4.40;;
21539;SDS011;10931;52.164;5.518;2022-08-19T10:51:18;5.68;;;4.57;;
21539;SDS011;10931;52.164;5.518;2022-08-19T10:54:05;5.38;;;4.13;;
21539;SDS011;10931;52.164;5.518;2022-08-19T10:56:31;6.43;;;4.65;;
21539;SDS011;10931;52.164;5.518;2022-08-19T10:59:16;5.55;;;4.65;;
21539;SDS011;10931;52.164;5.518;2022-08-19T11:01:50;7.43;;;5.45;;
21539;SDS011;10931;52.164;5.518;2022-08-19T11:04:16;5.57;;;4.22;;
21539;SDS011;10931;52.164;5.518;2022-08-19T11:06:43;5.93;;;4.13;;
21539;SDS011;10931;52.164;5.518;2022-08-19T11:09:12;5.47;;;4.18;;
21539;SDS011;10931;52.164;5.518;2022-08-19T11:11:40;5.93;;;4.70;;
21539;SDS011;10931;52.164;5.518;2022-08-19T11:14:07;4.93;;;3.95;;
21539;SDS011;10931;52.164;5.518;2022-08-19T11:16:35;7.22;;;4.18;;
21539;SDS011;10931;52.164;5.518;2022-08-19T11:19:03;5.80;;;4.50;;
21539;SDS011;10931;52.164;5.518;2022-08-19T11:21:29;6.57;;;4.72;;
21539;SDS011;10931;52.164;5.518;2022-08-19T11:24:01;4.55;;;4.05;;
21539;SDS011;10931;52.164;5.518;2022-08-19T11:26:29;4.88;;;4.07;;
21539;SDS011;10931;52.164;5.518;2022-08-19T11:28:56;5.03;;;4.18;;
21539;SDS011;10931;52.164;5.518;2022-08-19T11:31:25;6.32;;;4.60;;
21539;SDS011;10931;52.164;5.518;2022-08-19T11:33:52;5.10;;;3.75;;
21539;SDS011;10931;52.164;5.518;2022-08-19T11:36:19;6.82;;;4.65;;
21539;SDS011;10931;52.164;5.518;2022-08-19T11:38:46;6.40;;;4.15;;
21539;SDS011;10931;52.164;5.518;2022-08-19T11:41:16;5.22;;;3.92;;
21539;SDS011;10931;52.164;5.518;2022-08-19T11:43:43;6.80;;;4.45;;
21539;SDS011;10931;52.164;5.518;2022-08-19T11:46:12;5.35;;;4.00;;
21539;SDS011;10931;52.164;5.518;2022-08-19T11:52:00;5.65;;;4.55;;
21539;SDS011;10931;52.164;5.518;2022-08-19T11:54:26;6.18;;;4.57;;
21539;SDS011;10931;52.164;5.518;2022-08-19T11:56:56;7.28;;;5.05;;
21539;SDS011;10931;52.164;5.518;2022-08-19T12:05:37;4.93;;;4.28;;
21539;SDS011;10931;52.164;5.518;2022-08-19T12:08:30;5.13;;;4.45;;
21539;SDS011;10931;52.164;5.518;2022-08-19T12:14:11;6.72;;;4.47;;
21539;SDS011;10931;52.164;5.518;2022-08-19T12:16:48;5.85;;;4.75;;
21539;SDS011;10931;52.164;5.518;2022-08-19T12:19:14;6.38;;;4.68;;
21539;SDS011;10931;52.164;5.518;2022-08-19T12:21:40;5.95;;;4.65;;
21539;SDS011;10931;52.164;5.518;2022-08-19T12:24:06;5.25;;;4.70;;
21539;SDS011;10931;52.164;5.518;2022-08-19T12:26:32;5.57;;;4.53;;
21539;SDS011;10931;52.164;5.518;2022-08-19T12:28:58;5.95;;;5.03;;
21539;SDS011;10931;52.164;5.518;2022-08-19T12:31:27;6.22;;;4.60;;
21539;SDS011;10931;52.164;5.518;2022-08-19T12:33:56;6.15;;;4.72;;
21539;SDS011;10931;52.164;5.518;2022-08-19T12:36:21;5.95;;;5.00;;
21539;SDS011;10931;52.164;5.518;2022-08-19T12:38:48;6.18;;;5.03;;
21539;SDS011;10931;52.164;5.518;2022-08-19T12:41:14;7.15;;;5.28;;
21539;SDS011;10931;52.164;5.518;2022-08-19T12:43:43;6.72;;;4.57;;
21539;SDS011;10931;52.164;5.518;2022-08-19T12:46:09;6.07;;;5.03;;
21539;SDS011;10931;52.164;5.518;2022-08-19T12:48:39;5.38;;;4.72;;
21539;SDS011;10931;52.164;5.518;2022-08-19T12:51:14;6.20;;;4.85;;
21539;SDS011;10931;52.164;5.518;2022-08-19T12:53:43;5.78;;;5.00;;
21539;SDS011;10931;52.164;5.518;2022-08-19T12:56:10;6.97;;;5.07;;
21539;SDS011;10931;52.164;5.518;2022-08-19T12:58:41;6.60;;;5.22;;
21539;SDS011;10931;52.164;5.518;2022-08-19T13:01:28;8.75;;;6.28;;
21539;SDS011;10931;52.164;5.518;2022-08-19T13:09:28;8.13;;;5.70;;
21539;SDS011;10931;52.164;5.518;2022-08-19T13:11:56;7.72;;;5.05;;
21539;SDS011;10931;52.164;5.518;2022-08-19T13:14:31;6.88;;;5.10;;
21539;SDS011;10931;52.164;5.518;2022-08-19T13:17:34;5.50;;;4.60;;
21539;SDS011;10931;52.164;5.518;2022-08-19T13:20:03;6.82;;;5.28;;
21539;SDS011;10931;52.164;5.518;2022-08-19T13:22:35;5.78;;;4.65;;
21539;SDS011;10931;52.164;5.518;2022-08-19T13:25:02;6.80;;;4.63;;
21539;SDS011;10931;52.164;5.518;2022-08-19T13:27:30;5.65;;;4.43;;
21539;SDS011;10931;52.164;5.518;2022-08-19T13:29:56;6.78;;;5.13;;
21539;SDS011;10931;52.164;5.518;2022-08-19T13:32:40;6.35;;;5.32;;
21539;SDS011;10931;52.164;5.518;2022-08-19T13:35:24;6.95;;;4.55;;
21539;SDS011;10931;52.164;5.518;2022-08-19T13:37:49;5.22;;;4.72;;
21539;SDS011;10931;52.164;5.518;2022-08-19T13:40:16;6.70;;;4.50;;
21539;SDS011;10931;52.164;5.518;2022-08-19T13:42:45;6.82;;;5.30;;
21539;SDS011;10931;52.164;5.518;2022-08-19T13:45:12;7.18;;;4.75;;
21539;SDS011;10931;52.164;5.518;2022-08-19T13:47:40;5.22;;;4.13;;
21539;SDS011;10931;52.164;5.518;2022-08-19T13:50:12;5.53;;;4.60;;
21539;SDS011;10931;52.164;5.518;2022-08-19T13:52:40;5.68;;;4.65;;
21539;SDS011;10931;52.164;5.518;2022-08-19T13:55:07;7.38;;;4.82;;
21539;SDS011;10931;52.164;5.518;2022-08-19T13:57:34;6.38;;;4.78;;
21539;SDS011;10931;52.164;5.518;2022-08-19T14:00:00;6.65;;;4.70;;
21539;SDS011;10931;52.164;5.518;2022-08-19T14:02:26;6.28;;;4.80;;
21539;SDS011;10931;52.164;5.518;2022-08-19T14:04:52;5.88;;;4.70;;
21539;SDS011;10931;52.164;5.518;2022-08-19T14:07:18;5.32;;;4.53;;
21539;SDS011;10931;52.164;5.518;2022-08-19T14:09:44;6.85;;;4.50;;
21539;SDS011;10931;52.164;5.518;2022-08-19T14:12:09;5.18;;;4.10;;
21539;SDS011;10931;52.164;5.518;2022-08-19T14:14:48;5.68;;;4.70;;
21539;SDS011;10931;52.164;5.518;2022-08-19T14:17:24;5.93;;;4.40;;
21539;SDS011;10931;52.164;5.518;2022-08-19T14:20:00;5.65;;;4.80;;
21539;SDS011;10931;52.164;5.518;2022-08-19T14:22:32;5.75;;;4.95;;
21539;SDS011;10931;52.164;5.518;2022-08-19T14:25:01;5.90;;;4.47;;
21539;SDS011;10931;52.164;5.518;2022-08-19T14:27:34;6.22;;;4.28;;
21539;SDS011;10931;52.164;5.518;2022-08-19T14:30:15;5.97;;;4.35;;
21539;SDS011;10931;52.164;5.518;2022-08-19T14:33:03;5.20;;;4.28;;
21539;SDS011;10931;52.164;5.518;2022-08-19T14:35:32;5.88;;;4.32;;
21539;SDS011;10931;52.164;5.518;2022-08-19T14:38:18;6.03;;;4.47;;
21539;SDS011;10931;52.164;5.518;2022-08-19T14:40:51;5.10;;;4.10;;
21539;SDS011;10931;52.164;5.518;2022-08-19T14:43:22;5.10;;;4.43;;
21539;SDS011;10931;52.164;5.518;2022-08-19T14:45:48;6.82;;;4.20;;
21539;SDS011;10931;52.164;5.518;2022-08-19T14:48:19;6.65;;;3.80;;
21539;SDS011;10931;52.164;5.518;2022-08-19T14:50:51;4.43;;;4.03;;
21539;SDS011;10931;52.164;5.518;2022-08-19T14:53:57;4.38;;;3.95;;
21539;SDS011;10931;52.164;5.518;2022-08-19T14:56:28;5.55;;;4.22;;
21539;SDS011;10931;52.164;5.518;2022-08-19T14:59:04;5.80;;;4.03;;
21539;SDS011;10931;52.164;5.518;2022-08-19T15:01:31;5.43;;;3.67;;
21539;SDS011;10931;52.164;5.518;2022-08-19T15:03:56;5.38;;;4.13;;
21539;SDS011;10931;52.164;5.518;2022-08-19T15:06:25;4.47;;;4.05;;
21539;SDS011;10931;52.164;5.518;2022-08-19T15:08:54;6.00;;;4.20;;
21539;SDS011;10931;52.164;5.518;2022-08-19T15:11:25;4.38;;;3.80;;
21539;SDS011;10931;52.164;5.518;2022-08-19T15:13:59;5.55;;;4.05;;
21539;SDS011;10931;52.164;5.518;2022-08-19T15:16:26;4.28;;;3.88;;
21539;SDS011;10931;52.164;5.518;2022-08-19T15:19:04;5.68;;;3.60;;
21539;SDS011;10931;52.164;5.518;2022-08-19T15:21:32;4.72;;;3.42;;
21539;SDS011;10931;52.164;5.518;2022-08-19T15:24:00;4.45;;;4.00;;
21539;SDS011;10931;52.164;5.518;2022-08-19T15:26:29;5.15;;;3.58;;
21539;SDS011;10931;52.164;5.518;2022-08-19T15:28:57;6.85;;;3.55;;
21539;SDS011;10931;52.164;5.518;2022-08-19T15:31:24;5.18;;;3.20;;
21539;SDS011;10931;52.164;5.518;2022-08-19T15:33:50;4.18;;;3.70;;
21539;SDS011;10931;52.164;5.518;2022-08-19T15:36:16;3.80;;;3.38;;
21539;SDS011;10931;52.164;5.518;2022-08-19T15:38:42;3.90;;;3.50;;
21539;SDS011;10931;52.164;5.518;2022-08-19T15:41:15;3.95;;;3.53;;
21539;SDS011;10931;52.164;5.518;2022-08-19T15:44:02;3.88;;;3.10;;
21539;SDS011;10931;52.164;5.518;2022-08-19T15:46:34;4.85;;;3.28;;
21539;SDS011;10931;52.164;5.518;2022-08-19T15:49:11;4.53;;;3.17;;
21539;SDS011;10931;52.164;5.518;2022-08-19T15:51:39;3.45;;;3.15;;
21539;SDS011;10931;52.164;5.518;2022-08-19T15:54:08;3.65;;;3.30;;
21539;SDS011;10931;52.164;5.518;2022-08-19T15:56:36;4.00;;;2.97;;
21539;SDS011;10931;52.164;5.518;2022-08-19T15:59:20;4.18;;;3.50;;
21539;SDS011;10931;52.164;5.518;2022-08-19T16:02:04;4.03;;;2.95;;
21539;SDS011;10931;52.164;5.518;2022-08-19T16:04:50;3.33;;;2.80;;
21539;SDS011;10931;52.164;5.518;2022-08-19T16:07:34;3.55;;;3.00;;
21539;SDS011;10931;52.164;5.518;2022-08-19T16:10:00;3.10;;;2.80;;
21539;SDS011;10931;52.164;5.518;2022-08-19T16:12:25;3.08;;;2.78;;
21539;SDS011;10931;52.164;5.518;2022-08-19T16:14:54;3.75;;;2.95;;
21539;SDS011;10931;52.164;5.518;2022-08-19T16:17:20;4.22;;;3.15;;
21539;SDS011;10931;52.164;5.518;2022-08-19T16:19:46;3.38;;;2.88;;
21539;SDS011;10931;52.164;5.518;2022-08-19T16:22:12;3.67;;;3.08;;
21539;SDS011;10931;52.164;5.518;2022-08-19T16:24:37;3.83;;;2.85;;
21539;SDS011;10931;52.164;5.518;2022-08-19T16:27:03;3.70;;;2.92;;
21539;SDS011;10931;52.164;5.518;2022-08-19T16:29:29;3.13;;;2.80;;
21539;SDS011;10931;52.164;5.518;2022-08-19T16:31:55;3.45;;;3.00;;
21539;SDS011;10931;52.164;5.518;2022-08-19T16:34:22;3.55;;;2.78;;
21539;SDS011;10931;52.164;5.518;2022-08-19T16:36:49;2.97;;;2.67;;
21539;SDS011;10931;52.164;5.518;2022-08-19T16:39:15;3.38;;;2.60;;
21539;SDS011;10931;52.164;5.518;2022-08-19T16:41:42;2.60;;;2.40;;
21539;SDS011;10931;52.164;5.518;2022-08-19T16:44:10;2.80;;;2.50;;
21539;SDS011;10931;52.164;5.518;2022-08-19T16:46:38;3.58;;;2.53;;
21539;SDS011;10931;52.164;5.518;2022-08-19T16:49:05;3.20;;;2.70;;
21539;SDS011;10931;52.164;5.518;2022-08-19T16:51:35;4.03;;;2.92;;
21539;SDS011;10931;52.164;5.518;2022-08-19T16:54:01;3.25;;;2.17;;
21539;SDS011;10931;52.164;5.518;2022-08-19T16:56:28;3.33;;;2.35;;
21539;SDS011;10931;52.164;5.518;2022-08-19T16:58:54;2.70;;;2.50;;
21539;SDS011;10931;52.164;5.518;2022-08-19T17:01:23;4.65;;;2.38;;
21539;SDS011;10931;52.164;5.518;2022-08-19T17:03:53;2.50;;;2.20;;
21539;SDS011;10931;52.164;5.518;2022-08-19T17:06:24;3.40;;;2.70;;
21539;SDS011;10931;52.164;5.518;2022-08-19T17:08:54;2.72;;;2.50;;
21539;SDS011;10931;52.164;5.518;2022-08-19T17:11:23;3.85;;;2.70;;
21539;SDS011;10931;52.164;5.518;2022-08-19T17:13:51;3.13;;;2.38;;
21539;SDS011;10931;52.164;5.518;2022-08-19T17:16:18;3.72;;;2.10;;
21539;SDS011;10931;52.164;5.518;2022-08-19T17:18:50;2.20;;;2.00;;
21539;SDS011;10931;52.164;5.518;2022-08-19T17:21:24;4.30;;;2.40;;
21539;SDS011;10931;52.164;5.518;2022-08-19T17:23:52;2.38;;;2.00;;
21539;SDS011;10931;52.164;5.518;2022-08-19T17:26:19;2.83;;;1.83;;
21539;SDS011;10931;52.164;5.518;2022-08-19T17:28:45;2.75;;;2.20;;
21539;SDS011;10931;52.164;5.518;2022-08-19T17:31:16;2.53;;;2.08;;
21539;SDS011;10931;52.164;5.518;2022-08-19T17:33:43;2.88;;;2.10;;
21539;SDS011;10931;52.164;5.518;2022-08-19T17:36:09;2.83;;;2.03;;
21539;SDS011;10931;52.164;5.518;2022-08-19T17:38:35;2.17;;;1.92;;
21539;SDS011;10931;52.164;5.518;2022-08-19T17:41:02;2.33;;;2.10;;
21539;SDS011;10931;52.164;5.518;2022-08-19T17:43:30;3.03;;;2.15;;
21539;SDS011;10931;52.164;5.518;2022-08-19T17:45:57;2.15;;;1.90;;
21539;SDS011;10931;52.164;5.518;2022-08-19T17:48:27;2.40;;;2.20;;
21539;SDS011;10931;52.164;5.518;2022-08-19T17:50:56;2.83;;;2.33;;
21539;SDS011;10931;52.164;5.518;2022-08-19T17:53:25;2.72;;;2.00;;
21539;SDS011;10931;52.164;5.518;2022-08-19T17:55:51;3.83;;;2.25;;
21539;SDS011;10931;52.164;5.518;2022-08-19T17:58:22;2.97;;;2.13;;
21539;SDS011;10931;52.164;5.518;2022-08-19T18:00:48;2.88;;;2.05;;
21539;SDS011;10931;52.164;5.518;2022-08-19T18:03:13;2.65;;;2.03;;
21539;SDS011;10931;52.164;5.518;2022-08-19T18:05:44;4.45;;;2.30;;
21539;SDS011;10931;52.164;5.518;2022-08-19T18:08:11;3.22;;;2.00;;
21539;SDS011;10931;52.164;5.518;2022-08-19T18:10:41;2.55;;;2.35;;
21539;SDS011;10931;52.164;5.518;2022-08-19T18:13:09;2.30;;;1.90;;
21539;SDS011;10931;52.164;5.518;2022-08-19T18:15:37;3.00;;;2.00;;
21539;SDS011;10931;52.164;5.518;2022-08-19T18:18:03;2.97;;;2.00;;
21539;SDS011;10931;52.164;5.518;2022-08-19T18:20:29;2.85;;;1.73;;
21539;SDS011;10931;52.164;5.518;2022-08-19T18:22:54;2.80;;;1.80;;
21539;SDS011;10931;52.164;5.518;2022-08-19T18:25:25;2.70;;;2.00;;
21539;SDS011;10931;52.164;5.518;2022-08-19T18:27:53;2.15;;;1.88;;
21539;SDS011;10931;52.164;5.518;2022-08-19T18:30:28;2.72;;;1.95;;
21539;SDS011;10931;52.164;5.518;2022-08-19T18:32:58;3.08;;;2.35;;
21539;SDS011;10931;52.164;5.518;2022-08-19T18:35:42;4.50;;;1.95;;
21539;SDS011;10931;52.164;5.518;2022-08-19T18:38:10;3.45;;;1.90;;
21539;SDS011;10931;52.164;5.518;2022-08-19T18:40:56;1.73;;;1.63;;
21539;SDS011;10931;52.164;5.518;2022-08-19T18:43:41;2.05;;;1.55;;
21539;SDS011;10931;52.164;5.518;2022-08-19T18:46:27;2.10;;;1.90;;
21539;SDS011;10931;52.164;5.518;2022-08-19T18:49:14;3.45;;;1.80;;
21539;SDS011;10931;52.164;5.518;2022-08-19T18:51:49;2.25;;;1.70;;
21539;SDS011;10931;52.164;5.518;2022-08-19T18:54:16;2.55;;;1.88;;
21539;SDS011;10931;52.164;5.518;2022-08-19T18:56:42;3.03;;;1.80;;
21539;SDS011;10931;52.164;5.518;2022-08-19T18:59:09;2.35;;;1.60;;
21539;SDS011;10931;52.164;5.518;2022-08-19T19:01:39;2.20;;;1.73;;
21539;SDS011;10931;52.164;5.518;2022-08-19T19:04:18;2.33;;;1.70;;
21539;SDS011;10931;52.164;5.518;2022-08-19T19:06:46;2.40;;;1.65;;
21539;SDS011;10931;52.164;5.518;2022-08-19T19:09:22;1.40;;;1.20;;
21539;SDS011;10931;52.164;5.518;2022-08-19T19:11:50;1.80;;;1.50;;
21539;SDS011;10931;52.164;5.518;2022-08-19T19:14:22;2.65;;;1.80;;
21539;SDS011;10931;52.164;5.518;2022-08-19T19:16:49;2.00;;;1.73;;
21539;SDS011;10931;52.164;5.518;2022-08-19T19:19:18;2.13;;;1.38;;
21539;SDS011;10931;52.164;5.518;2022-08-19T19:21:51;2.22;;;1.60;;
21539;SDS011;10931;52.164;5.518;2022-08-19T19:24:21;1.77;;;1.40;;
21539;SDS011;10931;52.164;5.518;2022-08-19T19:26:51;1.90;;;1.48;;
21539;SDS011;10931;52.164;5.518;2022-08-19T19:29:21;1.55;;;1.25;;
21539;SDS011;10931;52.164;5.518;2022-08-19T19:31:49;1.67;;;1.30;;
21539;SDS011;10931;52.164;5.518;2022-08-19T19:34:25;2.03;;;1.38;;
21539;SDS011;10931;52.164;5.518;2022-08-19T19:36:56;1.45;;;1.15;;
21539;SDS011;10931;52.164;5.518;2022-08-19T19:39:22;2.45;;;1.38;;
21539;SDS011;10931;52.164;5.518;2022-08-19T19:41:48;2.20;;;1.20;;
21539;SDS011;10931;52.164;5.518;2022-08-19T19:44:13;1.58;;;1.33;;
21539;SDS011;10931;52.164;5.518;2022-08-19T19:46:39;2.30;;;1.42;;
21539;SDS011;10931;52.164;5.518;2022-08-19T19:49:20;3.45;;;1.50;;
21539;SDS011;10931;52.164;5.518;2022-08-19T19:51:48;1.30;;;1.05;;
21539;SDS011;10931;52.164;5.518;2022-08-19T19:54:17;1.52;;;1.20;;
21539;SDS011;10931;52.164;5.518;2022-08-19T19:56:45;1.20;;;1.10;;
21539;SDS011;10931;52.164;5.518;2022-08-19T19:59:12;1.23;;;1.02;;
21539;SDS011;10931;52.164;5.518;2022-08-19T20:01:40;1.25;;;1.00;;
21539;SDS011;10931;52.164;5.518;2022-08-19T20:04:09;1.33;;;1.17;;
21539;SDS011;10931;52.164;5.518;2022-08-19T20:06:38;2.15;;;1.30;;
21539;SDS011;10931;52.164;5.518;2022-08-19T20:09:04;1.70;;;1.20;;
21539;SDS011;10931;52.164;5.518;2022-08-19T20:14:03;1.30;;;1.05;;
21539;SDS011;10931;52.164;5.518;2022-08-19T20:16:32;1.63;;;1.30;;
21539;SDS011;10931;52.164;5.518;2022-08-19T20:19:02;1.55;;;1.00;;
21539;SDS011;10931;52.164;5.518;2022-08-19T20:21:33;1.55;;;1.00;;
21539;SDS011;10931;52.164;5.518;2022-08-19T20:24:02;1.52;;;1.10;;
21539;SDS011;10931;52.164;5.518;2022-08-19T20:26:31;1.90;;;1.15;;
21539;SDS011;10931;52.164;5.518;2022-08-19T20:29:00;1.88;;;1.20;;
21539;SDS011;10931;52.164;5.518;2022-08-19T20:31:31;1.90;;;1.10;;
21539;SDS011;10931;52.164;5.518;2022-08-19T20:34:00;1.10;;;0.80;;
21539;SDS011;10931;52.164;5.518;2022-08-19T20:36:26;1.30;;;1.02;;
21539;SDS011;10931;52.164;5.518;2022-08-19T20:38:55;1.63;;;1.08;;
21539;SDS011;10931;52.164;5.518;2022-08-19T20:41:24;0.98;;;0.88;;
